sensor_id;sensor_type;location;lat;lon;timestamp;P1;durP1;ratioP1;P2;durP2;ratioP2
50695;SDS011;36665;51.786;21.594;2023-06-22T00:03:17;25.50;;;21.30;;
50695;SDS011;36665;51.786;21.594;2023-06-22T00:11:42;31.90;;;21.70;;
50695;SDS011;36665;51.786;21.594;2023-06-22T00:20:07;28.20;;;21.70;;
50695;SDS011;36665;51.786;21.594;2023-06-22T00:28:31;27.10;;;22.50;;
50695;SDS011;36665;51.786;21.594;2023-06-22T00:36:57;28.40;;;22.90;;
50695;SDS011;36665;51.786;21.594;2023-06-22T00:45:20;28.80;;;22.60;;
50695;SDS011;36665;51.786;21.594;2023-06-22T00:53:45;32.40;;;22.70;;
50695;SDS011;36665;51.786;21.594;2023-06-22T01:02:11;25.50;;;21.20;;
50695;SDS011;36665;51.786;21.594;2023-06-22T01:10:41;25.50;;;20.40;;
50695;SDS011;36665;51.786;21.594;2023-06-22T01:19:35;26.80;;;19.70;;
50695;SDS011;36665;51.786;21.594;2023-06-22T01:37:01;25.20;;;18.10;;
50695;SDS011;36665;51.786;21.594;2023-06-22T01:45:25;24.60;;;18.10;;
50695;SDS011;36665;51.786;21.594;2023-06-22T01:53:49;18.30;;;16.20;;
50695;SDS011;36665;51.786;21.594;2023-06-22T02:02:15;20.70;;;17.00;;
50695;SDS011;36665;51.786;21.594;2023-06-22T02:10:42;19.10;;;16.50;;
50695;SDS011;36665;51.786;21.594;2023-06-22T02:19:06;31.20;;;18.20;;
50695;SDS011;36665;51.786;21.594;2023-06-22T02:27:29;29.20;;;18.50;;
50695;SDS011;36665;51.786;21.594;2023-06-22T02:35:52;24.90;;;19.20;;
50695;SDS011;36665;51.786;21.594;2023-06-22T02:44:17;27.50;;;19.30;;
50695;SDS011;36665;51.786;21.594;2023-06-22T02:52:43;36.10;;;21.70;;
50695;SDS011;36665;51.786;21.594;2023-06-22T03:01:07;27.60;;;22.50;;
50695;SDS011;36665;51.786;21.594;2023-06-22T03:09:31;22.30;;;19.90;;
50695;SDS011;36665;51.786;21.594;2023-06-22T03:17:54;30.70;;;21.10;;
50695;SDS011;36665;51.786;21.594;2023-06-22T03:26:18;25.30;;;20.30;;
50695;SDS011;36665;51.786;21.594;2023-06-22T03:34:41;29.90;;;20.90;;
50695;SDS011;36665;51.786;21.594;2023-06-22T03:43:10;30.70;;;21.30;;
50695;SDS011;36665;51.786;21.594;2023-06-22T03:51:33;26.90;;;19.80;;
50695;SDS011;36665;51.786;21.594;2023-06-22T03:59:56;33.50;;;20.40;;
50695;SDS011;36665;51.786;21.594;2023-06-22T04:08:20;29.00;;;20.10;;
50695;SDS011;36665;51.786;21.594;2023-06-22T04:16:43;29.20;;;21.30;;
50695;SDS011;36665;51.786;21.594;2023-06-22T04:25:06;26.30;;;22.20;;
50695;SDS011;36665;51.786;21.594;2023-06-22T04:33:32;29.60;;;22.20;;
50695;SDS011;36665;51.786;21.594;2023-06-22T04:41:55;29.20;;;22.50;;
50695;SDS011;36665;51.786;21.594;2023-06-22T04:50:23;37.20;;;29.30;;
50695;SDS011;36665;51.786;21.594;2023-06-22T04:58:46;43.70;;;29.90;;
50695;SDS011;36665;51.786;21.594;2023-06-22T05:07:09;41.50;;;30.90;;
50695;SDS011;36665;51.786;21.594;2023-06-22T05:15:32;45.00;;;31.80;;
50695;SDS011;36665;51.786;21.594;2023-06-22T05:23:59;45.20;;;32.50;;
50695;SDS011;36665;51.786;21.594;2023-06-22T05:32:25;41.90;;;32.70;;
50695;SDS011;36665;51.786;21.594;2023-06-22T05:40:48;50.70;;;40.50;;
50695;SDS011;36665;51.786;21.594;2023-06-22T05:49:12;53.40;;;36.10;;
50695;SDS011;36665;51.786;21.594;2023-06-22T05:57:36;55.40;;;36.80;;
50695;SDS011;36665;51.786;21.594;2023-06-22T06:05:59;46.60;;;37.10;;
50695;SDS011;36665;51.786;21.594;2023-06-22T06:14:26;54.20;;;39.50;;
50695;SDS011;36665;51.786;21.594;2023-06-22T06:22:49;57.20;;;40.40;;
50695;SDS011;36665;51.786;21.594;2023-06-22T06:31:13;53.90;;;38.90;;
50695;SDS011;36665;51.786;21.594;2023-06-22T06:39:40;62.80;;;41.60;;
50695;SDS011;36665;51.786;21.594;2023-06-22T06:48:06;60.80;;;39.30;;
50695;SDS011;36665;51.786;21.594;2023-06-22T06:56:29;57.70;;;39.30;;
50695;SDS011;36665;51.786;21.594;2023-06-22T07:04:53;57.80;;;39.60;;
50695;SDS011;36665;51.786;21.594;2023-06-22T07:13:18;46.80;;;35.60;;
50695;SDS011;36665;51.786;21.594;2023-06-22T07:21:41;46.80;;;35.50;;
50695;SDS011;36665;51.786;21.594;2023-06-22T07:30:04;42.90;;;32.10;;
50695;SDS011;36665;51.786;21.594;2023-06-22T07:38:28;32.70;;;28.00;;
50695;SDS011;36665;51.786;21.594;2023-06-22T07:46:50;57.10;;;44.60;;
50695;SDS011;36665;51.786;21.594;2023-06-22T07:55:13;36.60;;;27.70;;
50695;SDS011;36665;51.786;21.594;2023-06-22T08:03:37;30.10;;;25.20;;
50695;SDS011;36665;51.786;21.594;2023-06-22T08:12:00;29.80;;;26.50;;
50695;SDS011;36665;51.786;21.594;2023-06-22T08:20:23;31.90;;;26.50;;
50695;SDS011;36665;51.786;21.594;2023-06-22T08:28:46;26.20;;;22.20;;
50695;SDS011;36665;51.786;21.594;2023-06-22T08:37:12;25.30;;;19.70;;
50695;SDS011;36665;51.786;21.594;2023-06-22T08:45:35;23.80;;;18.50;;
50695;SDS011;36665;51.786;21.594;2023-06-22T08:53:58;21.20;;;16.90;;
50695;SDS011;36665;51.786;21.594;2023-06-22T09:02:22;19.60;;;16.10;;
50695;SDS011;36665;51.786;21.594;2023-06-22T09:10:45;13.00;;;11.60;;
50695;SDS011;36665;51.786;21.594;2023-06-22T09:19:07;16.40;;;12.60;;
50695;SDS011;36665;51.786;21.594;2023-06-22T09:27:30;13.30;;;11.90;;
50695;SDS011;36665;51.786;21.594;2023-06-22T09:35:53;16.00;;;11.60;;
50695;SDS011;36665;51.786;21.594;2023-06-22T09:44:16;13.30;;;10.30;;
50695;SDS011;36665;51.786;21.594;2023-06-22T09:52:41;9.80;;;8.70;;
50695;SDS011;36665;51.786;21.594;2023-06-22T10:01:10;10.90;;;6.40;;
50695;SDS011;36665;51.786;21.594;2023-06-22T10:09:33;12.70;;;5.30;;
50695;SDS011;36665;51.786;21.594;2023-06-22T10:17:56;7.70;;;5.40;;
50695;SDS011;36665;51.786;21.594;2023-06-22T10:26:19;5.20;;;3.30;;
50695;SDS011;36665;51.786;21.594;2023-06-22T10:34:42;6.80;;;3.60;;
50695;SDS011;36665;51.786;21.594;2023-06-22T10:43:05;3.20;;;2.80;;
50695;SDS011;36665;51.786;21.594;2023-06-22T10:51:31;3.40;;;3.00;;
50695;SDS011;36665;51.786;21.594;2023-06-22T10:59:55;5.90;;;5.10;;
50695;SDS011;36665;51.786;21.594;2023-06-22T11:08:18;4.10;;;2.70;;
50695;SDS011;36665;51.786;21.594;2023-06-22T11:16:42;3.60;;;2.10;;
50695;SDS011;36665;51.786;21.594;2023-06-22T11:25:06;5.50;;;2.20;;
50695;SDS011;36665;51.786;21.594;2023-06-22T11:33:29;7.60;;;2.00;;
50695;SDS011;36665;51.786;21.594;2023-06-22T11:41:52;4.30;;;2.40;;
50695;SDS011;36665;51.786;21.594;2023-06-22T11:50:15;8.10;;;2.20;;
50695;SDS011;36665;51.786;21.594;2023-06-22T11:58:38;3.60;;;1.80;;
50695;SDS011;36665;51.786;21.594;2023-06-22T12:07:03;4.00;;;2.20;;
50695;SDS011;36665;51.786;21.594;2023-06-22T12:15:27;9.40;;;2.20;;
50695;SDS011;36665;51.786;21.594;2023-06-22T12:23:50;4.80;;;2.60;;
50695;SDS011;36665;51.786;21.594;2023-06-22T12:32:13;19.30;;;3.50;;
50695;SDS011;36665;51.786;21.594;2023-06-22T12:40:37;6.70;;;2.10;;
50695;SDS011;36665;51.786;21.594;2023-06-22T12:49:00;10.00;;;4.10;;
50695;SDS011;36665;51.786;21.594;2023-06-22T12:57:23;5.70;;;2.60;;
50695;SDS011;36665;51.786;21.594;2023-06-22T13:05:46;11.60;;;4.20;;
50695;SDS011;36665;51.786;21.594;2023-06-22T13:14:09;3.80;;;2.40;;
50695;SDS011;36665;51.786;21.594;2023-06-22T13:22:33;7.40;;;2.50;;
50695;SDS011;36665;51.786;21.594;2023-06-22T13:31:03;41.30;;;36.10;;
50695;SDS011;36665;51.786;21.594;2023-06-22T13:39:26;8.20;;;4.20;;
50695;SDS011;36665;51.786;21.594;2023-06-22T13:47:49;6.50;;;2.60;;
50695;SDS011;36665;51.786;21.594;2023-06-22T13:56:15;6.40;;;2.70;;
50695;SDS011;36665;51.786;21.594;2023-06-22T14:04:39;5.40;;;2.90;;
50695;SDS011;36665;51.786;21.594;2023-06-22T14:13:02;44.60;;;31.40;;
50695;SDS011;36665;51.786;21.594;2023-06-22T14:21:30;9.30;;;3.40;;
50695;SDS011;36665;51.786;21.594;2023-06-22T14:29:53;7.10;;;3.30;;
50695;SDS011;36665;51.786;21.594;2023-06-22T14:38:16;6.00;;;2.70;;
50695;SDS011;36665;51.786;21.594;2023-06-22T14:46:39;6.30;;;3.00;;
50695;SDS011;36665;51.786;21.594;2023-06-22T14:55:02;13.40;;;9.60;;
50695;SDS011;36665;51.786;21.594;2023-06-22T15:03:26;4.90;;;2.80;;
50695;SDS011;36665;51.786;21.594;2023-06-22T15:11:51;5.40;;;2.60;;
50695;SDS011;36665;51.786;21.594;2023-06-22T15:20:14;4.60;;;2.70;;
50695;SDS011;36665;51.786;21.594;2023-06-22T15:28:39;6.00;;;3.20;;
50695;SDS011;36665;51.786;21.594;2023-06-22T15:37:02;16.40;;;7.80;;
50695;SDS011;36665;51.786;21.594;2023-06-22T15:45:25;7.50;;;3.70;;
50695;SDS011;36665;51.786;21.594;2023-06-22T15:53:48;6.30;;;3.30;;
50695;SDS011;36665;51.786;21.594;2023-06-22T16:02:13;5.60;;;3.60;;
50695;SDS011;36665;51.786;21.594;2023-06-22T16:10:36;5.10;;;3.00;;
50695;SDS011;36665;51.786;21.594;2023-06-22T16:18:59;7.40;;;3.40;;
50695;SDS011;36665;51.786;21.594;2023-06-22T16:27:22;4.10;;;3.40;;
50695;SDS011;36665;51.786;21.594;2023-06-22T16:35:46;5.10;;;3.00;;
50695;SDS011;36665;51.786;21.594;2023-06-22T16:44:09;6.00;;;3.90;;
50695;SDS011;36665;51.786;21.594;2023-06-22T16:52:33;7.60;;;3.20;;
50695;SDS011;36665;51.786;21.594;2023-06-22T17:00:57;7.50;;;3.00;;
50695;SDS011;36665;51.786;21.594;2023-06-22T17:09:22;4.90;;;2.90;;
50695;SDS011;36665;51.786;21.594;2023-06-22T17:17:51;6.40;;;3.10;;
50695;SDS011;36665;51.786;21.594;2023-06-22T17:26:17;9.30;;;3.50;;
50695;SDS011;36665;51.786;21.594;2023-06-22T17:34:44;9.30;;;4.30;;
50695;SDS011;36665;51.786;21.594;2023-06-22T17:43:07;8.80;;;4.50;;
50695;SDS011;36665;51.786;21.594;2023-06-22T17:51:30;6.40;;;4.20;;
50695;SDS011;36665;51.786;21.594;2023-06-22T17:59:53;12.10;;;9.20;;
50695;SDS011;36665;51.786;21.594;2023-06-22T18:08:16;22.80;;;11.50;;
50695;SDS011;36665;51.786;21.594;2023-06-22T18:16:48;7.00;;;5.70;;
50695;SDS011;36665;51.786;21.594;2023-06-22T18:25:13;7.90;;;5.50;;
50695;SDS011;36665;51.786;21.594;2023-06-22T18:33:37;71.70;;;55.20;;
50695;SDS011;36665;51.786;21.594;2023-06-22T18:42:00;22.90;;;14.40;;
50695;SDS011;36665;51.786;21.594;2023-06-22T18:50:45;26.00;;;13.80;;
50695;SDS011;36665;51.786;21.594;2023-06-22T18:59:11;14.10;;;9.70;;
50695;SDS011;36665;51.786;21.594;2023-06-22T19:16:16;17.50;;;9.10;;
50695;SDS011;36665;51.786;21.594;2023-06-22T19:24:47;20.30;;;9.00;;
50695;SDS011;36665;51.786;21.594;2023-06-22T19:33:12;14.60;;;6.90;;
50695;SDS011;36665;51.786;21.594;2023-06-22T19:41:37;10.30;;;6.90;;
50695;SDS011;36665;51.786;21.594;2023-06-22T19:50:00;13.40;;;7.00;;
50695;SDS011;36665;51.786;21.594;2023-06-22T19:58:26;10.80;;;7.20;;
50695;SDS011;36665;51.786;21.594;2023-06-22T20:06:59;13.10;;;8.50;;
50695;SDS011;36665;51.786;21.594;2023-06-22T20:15:25;13.30;;;8.10;;
50695;SDS011;36665;51.786;21.594;2023-06-22T20:23:49;11.40;;;7.50;;
50695;SDS011;36665;51.786;21.594;2023-06-22T20:32:13;17.90;;;8.60;;
50695;SDS011;36665;51.786;21.594;2023-06-22T20:40:37;14.20;;;9.10;;
50695;SDS011;36665;51.786;21.594;2023-06-22T20:49:00;15.20;;;8.90;;
50695;SDS011;36665;51.786;21.594;2023-06-22T20:57:22;14.80;;;7.80;;
50695;SDS011;36665;51.786;21.594;2023-06-22T21:05:45;18.30;;;8.20;;
50695;SDS011;36665;51.786;21.594;2023-06-22T21:14:09;14.10;;;9.40;;
50695;SDS011;36665;51.786;21.594;2023-06-22T21:22:41;12.30;;;9.00;;
50695;SDS011;36665;51.786;21.594;2023-06-22T21:31:04;14.40;;;9.40;;
50695;SDS011;36665;51.786;21.594;2023-06-22T21:39:27;15.30;;;10.80;;
50695;SDS011;36665;51.786;21.594;2023-06-22T21:47:51;21.90;;;10.60;;
50695;SDS011;36665;51.786;21.594;2023-06-22T21:56:14;19.10;;;11.20;;
50695;SDS011;36665;51.786;21.594;2023-06-22T22:04:37;17.60;;;10.90;;
50695;SDS011;36665;51.786;21.594;2023-06-22T22:13:00;18.30;;;10.20;;
50695;SDS011;36665;51.786;21.594;2023-06-22T22:21:23;14.60;;;10.40;;
50695;SDS011;36665;51.786;21.594;2023-06-22T22:29:46;15.60;;;10.60;;
50695;SDS011;36665;51.786;21.594;2023-06-22T22:38:09;18.80;;;12.60;;
50695;SDS011;36665;51.786;21.594;2023-06-22T22:46:33;16.30;;;10.40;;
50695;SDS011;36665;51.786;21.594;2023-06-22T22:54:57;17.80;;;11.80;;
50695;SDS011;36665;51.786;21.594;2023-06-22T23:03:23;21.40;;;11.90;;
50695;SDS011;36665;51.786;21.594;2023-06-22T23:11:48;25.00;;;13.30;;
50695;SDS011;36665;51.786;21.594;2023-06-22T23:20:11;19.80;;;12.20;;
50695;SDS011;36665;51.786;21.594;2023-06-22T23:28:37;20.40;;;13.30;;
50695;SDS011;36665;51.786;21.594;2023-06-22T23:37:00;35.50;;;19.80;;
50695;SDS011;36665;51.786;21.594;2023-06-22T23:45:24;23.50;;;15.10;;
50695;SDS011;36665;51.786;21.594;2023-06-22T23:53:46;22.70;;;15.30;;
